sensor_id;sensor_type;location;lat;lon;timestamp;P1;durP1;ratioP1;P2;durP2;ratioP2
9524;SDS011;15940;48.734;9.112;2024-03-07T00:00:08;32.30;;;22.00;;
9524;SDS011;15940;48.734;9.112;2024-03-07T00:02:43;35.87;;;23.37;;
9524;SDS011;15940;48.734;9.112;2024-03-07T00:05:12;35.37;;;22.27;;
9524;SDS011;15940;48.734;9.112;2024-03-07T00:07:40;35.67;;;22.70;;
9524;SDS011;15940;48.734;9.112;2024-03-07T00:10:08;40.17;;;24.00;;
9524;SDS011;15940;48.734;9.112;2024-03-07T00:12:36;39.00;;;23.33;;
9524;SDS011;15940;48.734;9.112;2024-03-07T00:15:06;38.53;;;24.50;;
9524;SDS011;15940;48.734;9.112;2024-03-07T00:17:33;37.50;;;23.60;;
9524;SDS011;15940;48.734;9.112;2024-03-07T00:20:02;36.63;;;22.93;;
9524;SDS011;15940;48.734;9.112;2024-03-07T00:22:33;39.83;;;24.57;;
9524;SDS011;15940;48.734;9.112;2024-03-07T00:25:00;35.93;;;23.63;;
9524;SDS011;15940;48.734;9.112;2024-03-07T00:27:29;37.93;;;24.20;;
9524;SDS011;15940;48.734;9.112;2024-03-07T00:29:56;38.23;;;22.87;;
9524;SDS011;15940;48.734;9.112;2024-03-07T00:32:24;37.53;;;24.40;;
9524;SDS011;15940;48.734;9.112;2024-03-07T00:34:54;40.13;;;23.23;;
9524;SDS011;15940;48.734;9.112;2024-03-07T00:37:23;40.00;;;24.23;;
9524;SDS011;15940;48.734;9.112;2024-03-07T00:39:50;33.77;;;23.20;;
9524;SDS011;15940;48.734;9.112;2024-03-07T00:42:16;41.60;;;25.67;;
9524;SDS011;15940;48.734;9.112;2024-03-07T00:44:43;38.20;;;24.13;;
9524;SDS011;15940;48.734;9.112;2024-03-07T00:47:10;39.30;;;24.83;;
9524;SDS011;15940;48.734;9.112;2024-03-07T00:49:37;38.33;;;24.33;;
9524;SDS011;15940;48.734;9.112;2024-03-07T00:52:04;38.60;;;24.40;;
9524;SDS011;15940;48.734;9.112;2024-03-07T00:54:33;34.93;;;23.93;;
9524;SDS011;15940;48.734;9.112;2024-03-07T00:57:00;36.60;;;25.00;;
9524;SDS011;15940;48.734;9.112;2024-03-07T00:59:27;37.80;;;24.30;;
9524;SDS011;15940;48.734;9.112;2024-03-07T01:01:54;43.60;;;26.30;;
9524;SDS011;15940;48.734;9.112;2024-03-07T01:04:20;38.07;;;24.80;;
9524;SDS011;15940;48.734;9.112;2024-03-07T01:06:47;36.83;;;23.43;;
9524;SDS011;15940;48.734;9.112;2024-03-07T01:09:16;36.73;;;23.30;;
9524;SDS011;15940;48.734;9.112;2024-03-07T01:11:45;39.37;;;25.03;;
9524;SDS011;15940;48.734;9.112;2024-03-07T01:14:12;39.60;;;24.50;;
9524;SDS011;15940;48.734;9.112;2024-03-07T01:16:39;39.90;;;24.80;;
9524;SDS011;15940;48.734;9.112;2024-03-07T01:19:06;41.77;;;24.37;;
9524;SDS011;15940;48.734;9.112;2024-03-07T01:21:33;38.10;;;23.67;;
9524;SDS011;15940;48.734;9.112;2024-03-07T01:24:01;39.33;;;24.27;;
9524;SDS011;15940;48.734;9.112;2024-03-07T01:26:29;35.30;;;23.93;;
9524;SDS011;15940;48.734;9.112;2024-03-07T01:28:57;44.40;;;24.77;;
9524;SDS011;15940;48.734;9.112;2024-03-07T01:31:24;40.60;;;25.20;;
9524;SDS011;15940;48.734;9.112;2024-03-07T01:33:51;38.13;;;26.87;;
9524;SDS011;15940;48.734;9.112;2024-03-07T01:36:18;42.07;;;26.03;;
9524;SDS011;15940;48.734;9.112;2024-03-07T01:38:46;40.37;;;24.10;;
9524;SDS011;15940;48.734;9.112;2024-03-07T01:41:13;39.40;;;27.07;;
9524;SDS011;15940;48.734;9.112;2024-03-07T01:43:40;43.17;;;27.43;;
9524;SDS011;15940;48.734;9.112;2024-03-07T01:46:09;43.07;;;27.27;;
9524;SDS011;15940;48.734;9.112;2024-03-07T01:48:36;45.93;;;27.97;;
9524;SDS011;15940;48.734;9.112;2024-03-07T01:51:03;43.87;;;27.07;;
9524;SDS011;15940;48.734;9.112;2024-03-07T01:53:31;40.33;;;26.60;;
9524;SDS011;15940;48.734;9.112;2024-03-07T01:56:00;43.20;;;27.10;;
9524;SDS011;15940;48.734;9.112;2024-03-07T01:58:29;41.97;;;27.43;;
9524;SDS011;15940;48.734;9.112;2024-03-07T02:00:57;44.40;;;28.00;;
9524;SDS011;15940;48.734;9.112;2024-03-07T02:03:26;47.30;;;28.00;;
9524;SDS011;15940;48.734;9.112;2024-03-07T02:05:52;47.80;;;29.50;;
9524;SDS011;15940;48.734;9.112;2024-03-07T02:08:20;45.90;;;28.23;;
9524;SDS011;15940;48.734;9.112;2024-03-07T02:10:47;43.73;;;26.97;;
9524;SDS011;15940;48.734;9.112;2024-03-07T02:13:14;39.03;;;26.23;;
9524;SDS011;15940;48.734;9.112;2024-03-07T02:15:42;43.00;;;27.97;;
9524;SDS011;15940;48.734;9.112;2024-03-07T02:18:08;40.03;;;25.37;;
9524;SDS011;15940;48.734;9.112;2024-03-07T02:20:37;41.23;;;27.17;;
9524;SDS011;15940;48.734;9.112;2024-03-07T02:23:08;42.70;;;26.90;;
9524;SDS011;15940;48.734;9.112;2024-03-07T02:25:35;40.57;;;26.07;;
9524;SDS011;15940;48.734;9.112;2024-03-07T02:28:03;39.57;;;25.93;;
9524;SDS011;15940;48.734;9.112;2024-03-07T02:30:30;41.37;;;26.77;;
9524;SDS011;15940;48.734;9.112;2024-03-07T02:32:58;45.10;;;26.90;;
9524;SDS011;15940;48.734;9.112;2024-03-07T02:35:32;41.10;;;25.67;;
9524;SDS011;15940;48.734;9.112;2024-03-07T02:38:02;42.20;;;27.23;;
9524;SDS011;15940;48.734;9.112;2024-03-07T02:40:30;43.63;;;25.77;;
9524;SDS011;15940;48.734;9.112;2024-03-07T02:42:57;41.83;;;26.80;;
9524;SDS011;15940;48.734;9.112;2024-03-07T02:45:24;43.67;;;26.97;;
9524;SDS011;15940;48.734;9.112;2024-03-07T02:47:51;37.93;;;25.77;;
9524;SDS011;15940;48.734;9.112;2024-03-07T02:50:18;43.20;;;26.03;;
9524;SDS011;15940;48.734;9.112;2024-03-07T02:52:47;37.93;;;25.57;;
9524;SDS011;15940;48.734;9.112;2024-03-07T02:55:15;43.97;;;26.77;;
9524;SDS011;15940;48.734;9.112;2024-03-07T02:57:44;42.40;;;26.77;;
9524;SDS011;15940;48.734;9.112;2024-03-07T03:00:12;47.83;;;28.27;;
9524;SDS011;15940;48.734;9.112;2024-03-07T03:02:52;42.17;;;26.80;;
9524;SDS011;15940;48.734;9.112;2024-03-07T03:05:19;43.00;;;26.03;;
9524;SDS011;15940;48.734;9.112;2024-03-07T03:07:46;41.83;;;26.23;;
9524;SDS011;15940;48.734;9.112;2024-03-07T03:10:20;39.27;;;26.03;;
9524;SDS011;15940;48.734;9.112;2024-03-07T03:12:51;44.33;;;27.97;;
9524;SDS011;15940;48.734;9.112;2024-03-07T03:15:19;46.03;;;27.97;;
9524;SDS011;15940;48.734;9.112;2024-03-07T03:17:47;43.17;;;27.90;;
9524;SDS011;15940;48.734;9.112;2024-03-07T03:20:14;44.93;;;28.70;;
9524;SDS011;15940;48.734;9.112;2024-03-07T03:22:49;48.83;;;30.07;;
9524;SDS011;15940;48.734;9.112;2024-03-07T03:25:18;48.03;;;28.23;;
9524;SDS011;15940;48.734;9.112;2024-03-07T03:27:48;45.53;;;29.03;;
9524;SDS011;15940;48.734;9.112;2024-03-07T03:30:15;46.57;;;28.47;;
9524;SDS011;15940;48.734;9.112;2024-03-07T03:32:44;47.60;;;28.43;;
9524;SDS011;15940;48.734;9.112;2024-03-07T03:35:12;45.90;;;29.07;;
9524;SDS011;15940;48.734;9.112;2024-03-07T03:37:40;41.57;;;28.13;;
9524;SDS011;15940;48.734;9.112;2024-03-07T03:40:08;46.47;;;29.43;;
9524;SDS011;15940;48.734;9.112;2024-03-07T03:42:38;50.03;;;29.93;;
9524;SDS011;15940;48.734;9.112;2024-03-07T03:45:06;42.20;;;28.27;;
9524;SDS011;15940;48.734;9.112;2024-03-07T03:47:34;44.43;;;28.27;;
9524;SDS011;15940;48.734;9.112;2024-03-07T03:50:02;42.13;;;28.97;;
9524;SDS011;15940;48.734;9.112;2024-03-07T03:52:31;44.47;;;28.17;;
9524;SDS011;15940;48.734;9.112;2024-03-07T03:54:58;48.47;;;29.23;;
9524;SDS011;15940;48.734;9.112;2024-03-07T03:57:25;53.67;;;30.13;;
9524;SDS011;15940;48.734;9.112;2024-03-07T03:59:55;47.20;;;29.33;;
9524;SDS011;15940;48.734;9.112;2024-03-07T04:02:22;50.40;;;30.30;;
9524;SDS011;15940;48.734;9.112;2024-03-07T04:04:49;45.57;;;28.73;;
9524;SDS011;15940;48.734;9.112;2024-03-07T04:07:17;45.83;;;28.67;;
9524;SDS011;15940;48.734;9.112;2024-03-07T04:09:45;44.80;;;28.60;;
9524;SDS011;15940;48.734;9.112;2024-03-07T04:12:13;48.23;;;30.33;;
9524;SDS011;15940;48.734;9.112;2024-03-07T04:14:40;48.33;;;28.57;;
9524;SDS011;15940;48.734;9.112;2024-03-07T04:17:09;41.13;;;27.80;;
9524;SDS011;15940;48.734;9.112;2024-03-07T04:19:38;47.93;;;30.10;;
9524;SDS011;15940;48.734;9.112;2024-03-07T04:22:06;52.43;;;31.53;;
9524;SDS011;15940;48.734;9.112;2024-03-07T04:24:34;44.97;;;29.57;;
9524;SDS011;15940;48.734;9.112;2024-03-07T04:27:02;45.80;;;29.30;;
9524;SDS011;15940;48.734;9.112;2024-03-07T04:29:29;47.03;;;29.40;;
9524;SDS011;15940;48.734;9.112;2024-03-07T04:31:57;49.70;;;29.13;;
9524;SDS011;15940;48.734;9.112;2024-03-07T04:34:25;46.00;;;29.53;;
9524;SDS011;15940;48.734;9.112;2024-03-07T04:36:53;48.60;;;29.30;;
9524;SDS011;15940;48.734;9.112;2024-03-07T04:39:20;50.33;;;30.43;;
9524;SDS011;15940;48.734;9.112;2024-03-07T04:41:55;47.20;;;29.47;;
9524;SDS011;15940;48.734;9.112;2024-03-07T04:44:22;44.90;;;29.33;;
9524;SDS011;15940;48.734;9.112;2024-03-07T04:46:50;42.20;;;28.33;;
9524;SDS011;15940;48.734;9.112;2024-03-07T04:49:20;47.00;;;28.33;;
9524;SDS011;15940;48.734;9.112;2024-03-07T04:51:50;45.77;;;28.00;;
9524;SDS011;15940;48.734;9.112;2024-03-07T04:54:17;47.33;;;27.90;;
9524;SDS011;15940;48.734;9.112;2024-03-07T04:56:44;46.30;;;28.57;;
9524;SDS011;15940;48.734;9.112;2024-03-07T04:59:11;46.77;;;28.30;;
9524;SDS011;15940;48.734;9.112;2024-03-07T05:01:38;46.23;;;29.17;;
9524;SDS011;15940;48.734;9.112;2024-03-07T05:04:05;46.63;;;27.77;;
9524;SDS011;15940;48.734;9.112;2024-03-07T05:06:32;42.27;;;27.50;;
9524;SDS011;15940;48.734;9.112;2024-03-07T05:09:01;47.60;;;29.33;;
9524;SDS011;15940;48.734;9.112;2024-03-07T05:11:29;44.53;;;28.83;;
9524;SDS011;15940;48.734;9.112;2024-03-07T05:13:56;49.47;;;28.83;;
9524;SDS011;15940;48.734;9.112;2024-03-07T05:16:24;46.17;;;28.20;;
9524;SDS011;15940;48.734;9.112;2024-03-07T05:18:51;43.87;;;28.40;;
9524;SDS011;15940;48.734;9.112;2024-03-07T05:21:18;47.13;;;28.03;;
9524;SDS011;15940;48.734;9.112;2024-03-07T05:24:04;48.93;;;29.37;;
9524;SDS011;15940;48.734;9.112;2024-03-07T05:26:33;53.10;;;29.17;;
9524;SDS011;15940;48.734;9.112;2024-03-07T05:29:02;47.43;;;28.90;;
9524;SDS011;15940;48.734;9.112;2024-03-07T05:31:32;46.60;;;27.53;;
9524;SDS011;15940;48.734;9.112;2024-03-07T05:34:00;49.37;;;29.10;;
9524;SDS011;15940;48.734;9.112;2024-03-07T05:36:28;42.57;;;27.17;;
9524;SDS011;15940;48.734;9.112;2024-03-07T05:38:57;45.60;;;28.10;;
9524;SDS011;15940;48.734;9.112;2024-03-07T05:41:26;41.17;;;27.87;;
9524;SDS011;15940;48.734;9.112;2024-03-07T05:43:54;42.77;;;27.27;;
9524;SDS011;15940;48.734;9.112;2024-03-07T05:46:21;46.37;;;28.30;;
9524;SDS011;15940;48.734;9.112;2024-03-07T05:48:49;42.30;;;26.93;;
9524;SDS011;15940;48.734;9.112;2024-03-07T05:51:20;42.37;;;26.90;;
9524;SDS011;15940;48.734;9.112;2024-03-07T05:53:48;47.60;;;29.63;;
9524;SDS011;15940;48.734;9.112;2024-03-07T05:56:15;44.70;;;27.13;;
9524;SDS011;15940;48.734;9.112;2024-03-07T05:58:43;44.13;;;26.90;;
9524;SDS011;15940;48.734;9.112;2024-03-07T06:01:10;42.10;;;27.83;;
9524;SDS011;15940;48.734;9.112;2024-03-07T06:03:37;41.40;;;26.90;;
9524;SDS011;15940;48.734;9.112;2024-03-07T06:06:06;38.87;;;26.37;;
9524;SDS011;15940;48.734;9.112;2024-03-07T06:08:36;43.50;;;26.80;;
9524;SDS011;15940;48.734;9.112;2024-03-07T06:11:07;40.77;;;25.93;;
9524;SDS011;15940;48.734;9.112;2024-03-07T06:13:34;43.23;;;27.67;;
9524;SDS011;15940;48.734;9.112;2024-03-07T06:16:03;41.37;;;25.97;;
9524;SDS011;15940;48.734;9.112;2024-03-07T06:18:32;44.73;;;27.70;;
9524;SDS011;15940;48.734;9.112;2024-03-07T06:21:00;42.57;;;28.10;;
9524;SDS011;15940;48.734;9.112;2024-03-07T06:23:29;47.77;;;26.97;;
9524;SDS011;15940;48.734;9.112;2024-03-07T06:25:56;44.00;;;27.63;;
9524;SDS011;15940;48.734;9.112;2024-03-07T06:28:24;42.10;;;27.30;;
9524;SDS011;15940;48.734;9.112;2024-03-07T06:30:53;47.67;;;28.40;;
9524;SDS011;15940;48.734;9.112;2024-03-07T06:33:22;42.43;;;26.97;;
9524;SDS011;15940;48.734;9.112;2024-03-07T06:35:50;39.23;;;26.63;;
9524;SDS011;15940;48.734;9.112;2024-03-07T06:38:17;42.10;;;26.97;;
9524;SDS011;15940;48.734;9.112;2024-03-07T06:40:44;41.67;;;27.33;;
9524;SDS011;15940;48.734;9.112;2024-03-07T06:43:11;43.70;;;27.83;;
9524;SDS011;15940;48.734;9.112;2024-03-07T06:45:39;39.60;;;26.73;;
9524;SDS011;15940;48.734;9.112;2024-03-07T06:48:07;41.80;;;26.27;;
9524;SDS011;15940;48.734;9.112;2024-03-07T06:50:36;39.77;;;25.37;;
9524;SDS011;15940;48.734;9.112;2024-03-07T06:53:03;40.73;;;26.13;;
9524;SDS011;15940;48.734;9.112;2024-03-07T06:55:32;36.77;;;25.80;;
9524;SDS011;15940;48.734;9.112;2024-03-07T06:57:59;37.40;;;25.30;;
9524;SDS011;15940;48.734;9.112;2024-03-07T07:00:29;37.83;;;25.13;;
9524;SDS011;15940;48.734;9.112;2024-03-07T07:03:00;39.07;;;26.60;;
9524;SDS011;15940;48.734;9.112;2024-03-07T07:05:29;38.10;;;25.87;;
9524;SDS011;15940;48.734;9.112;2024-03-07T07:07:58;41.87;;;27.23;;
9524;SDS011;15940;48.734;9.112;2024-03-07T07:10:26;41.93;;;26.60;;
9524;SDS011;15940;48.734;9.112;2024-03-07T07:12:52;41.40;;;26.23;;
9524;SDS011;15940;48.734;9.112;2024-03-07T07:15:20;39.53;;;25.90;;
9524;SDS011;15940;48.734;9.112;2024-03-07T07:17:48;39.13;;;25.40;;
9524;SDS011;15940;48.734;9.112;2024-03-07T07:20:15;40.73;;;25.93;;
9524;SDS011;15940;48.734;9.112;2024-03-07T07:22:43;38.17;;;25.83;;
9524;SDS011;15940;48.734;9.112;2024-03-07T07:25:14;41.37;;;25.53;;
9524;SDS011;15940;48.734;9.112;2024-03-07T07:27:41;35.03;;;24.87;;
9524;SDS011;15940;48.734;9.112;2024-03-07T07:30:10;42.00;;;26.10;;
9524;SDS011;15940;48.734;9.112;2024-03-07T07:32:38;38.40;;;25.37;;
9524;SDS011;15940;48.734;9.112;2024-03-07T07:35:06;38.67;;;25.87;;
9524;SDS011;15940;48.734;9.112;2024-03-07T07:37:36;39.00;;;23.77;;
9524;SDS011;15940;48.734;9.112;2024-03-07T07:40:05;33.60;;;24.13;;
9524;SDS011;15940;48.734;9.112;2024-03-07T07:42:36;35.70;;;25.70;;
9524;SDS011;15940;48.734;9.112;2024-03-07T07:45:05;32.77;;;23.03;;
9524;SDS011;15940;48.734;9.112;2024-03-07T07:47:36;34.07;;;24.03;;
9524;SDS011;15940;48.734;9.112;2024-03-07T07:50:06;35.97;;;22.27;;
9524;SDS011;15940;48.734;9.112;2024-03-07T07:52:39;32.70;;;23.83;;
9524;SDS011;15940;48.734;9.112;2024-03-07T07:55:07;31.10;;;22.63;;
9524;SDS011;15940;48.734;9.112;2024-03-07T07:57:41;32.17;;;22.17;;
9524;SDS011;15940;48.734;9.112;2024-03-07T08:00:11;29.67;;;21.83;;
9524;SDS011;15940;48.734;9.112;2024-03-07T08:02:46;28.63;;;20.27;;
9524;SDS011;15940;48.734;9.112;2024-03-07T08:05:16;29.93;;;22.10;;
9524;SDS011;15940;48.734;9.112;2024-03-07T08:07:44;30.93;;;21.57;;
9524;SDS011;15940;48.734;9.112;2024-03-07T08:10:12;33.57;;;23.37;;
9524;SDS011;15940;48.734;9.112;2024-03-07T08:12:41;32.07;;;22.27;;
9524;SDS011;15940;48.734;9.112;2024-03-07T08:15:09;32.43;;;22.53;;
9524;SDS011;15940;48.734;9.112;2024-03-07T08:17:39;32.93;;;23.27;;
9524;SDS011;15940;48.734;9.112;2024-03-07T08:20:09;29.63;;;22.33;;
9524;SDS011;15940;48.734;9.112;2024-03-07T08:22:40;34.33;;;22.80;;
9524;SDS011;15940;48.734;9.112;2024-03-07T08:25:08;33.40;;;23.13;;
9524;SDS011;15940;48.734;9.112;2024-03-07T08:27:37;32.93;;;22.23;;
9524;SDS011;15940;48.734;9.112;2024-03-07T08:30:08;29.27;;;21.37;;
9524;SDS011;15940;48.734;9.112;2024-03-07T08:32:38;30.97;;;22.83;;
9524;SDS011;15940;48.734;9.112;2024-03-07T08:35:05;33.23;;;22.33;;
9524;SDS011;15940;48.734;9.112;2024-03-07T08:37:35;35.20;;;24.30;;
9524;SDS011;15940;48.734;9.112;2024-03-07T08:40:02;31.47;;;21.93;;
9524;SDS011;15940;48.734;9.112;2024-03-07T08:42:32;30.37;;;22.53;;
9524;SDS011;15940;48.734;9.112;2024-03-07T08:45:00;29.97;;;22.60;;
9524;SDS011;15940;48.734;9.112;2024-03-07T08:47:30;33.37;;;21.40;;
9524;SDS011;15940;48.734;9.112;2024-03-07T08:49:58;32.50;;;23.40;;
9524;SDS011;15940;48.734;9.112;2024-03-07T08:52:25;31.97;;;22.73;;
9524;SDS011;15940;48.734;9.112;2024-03-07T08:54:53;36.93;;;23.23;;
9524;SDS011;15940;48.734;9.112;2024-03-07T08:57:20;31.70;;;22.17;;
9524;SDS011;15940;48.734;9.112;2024-03-07T08:59:47;30.33;;;22.67;;
9524;SDS011;15940;48.734;9.112;2024-03-07T09:02:14;29.17;;;21.80;;
9524;SDS011;15940;48.734;9.112;2024-03-07T09:04:43;32.23;;;22.70;;
9524;SDS011;15940;48.734;9.112;2024-03-07T09:07:11;30.77;;;22.73;;
9524;SDS011;15940;48.734;9.112;2024-03-07T09:09:39;31.37;;;22.17;;
9524;SDS011;15940;48.734;9.112;2024-03-07T09:12:08;32.47;;;22.03;;
9524;SDS011;15940;48.734;9.112;2024-03-07T09:14:35;31.17;;;22.40;;
9524;SDS011;15940;48.734;9.112;2024-03-07T09:17:02;29.80;;;21.70;;
9524;SDS011;15940;48.734;9.112;2024-03-07T09:19:30;33.10;;;22.47;;
9524;SDS011;15940;48.734;9.112;2024-03-07T09:21:58;31.30;;;23.10;;
9524;SDS011;15940;48.734;9.112;2024-03-07T09:24:26;32.57;;;22.17;;
9524;SDS011;15940;48.734;9.112;2024-03-07T09:26:53;32.10;;;22.67;;
9524;SDS011;15940;48.734;9.112;2024-03-07T09:29:21;31.13;;;21.87;;
9524;SDS011;15940;48.734;9.112;2024-03-07T09:31:48;31.93;;;21.93;;
9524;SDS011;15940;48.734;9.112;2024-03-07T09:34:17;30.13;;;22.20;;
9524;SDS011;15940;48.734;9.112;2024-03-07T09:36:46;33.73;;;23.57;;
9524;SDS011;15940;48.734;9.112;2024-03-07T09:39:15;29.20;;;22.17;;
9524;SDS011;15940;48.734;9.112;2024-03-07T09:41:42;35.97;;;24.23;;
9524;SDS011;15940;48.734;9.112;2024-03-07T09:44:09;34.17;;;22.93;;
9524;SDS011;15940;48.734;9.112;2024-03-07T09:46:41;31.03;;;22.40;;
9524;SDS011;15940;48.734;9.112;2024-03-07T09:49:11;31.17;;;22.63;;
9524;SDS011;15940;48.734;9.112;2024-03-07T09:51:40;32.63;;;23.13;;
9524;SDS011;15940;48.734;9.112;2024-03-07T09:54:09;29.43;;;22.23;;
9524;SDS011;15940;48.734;9.112;2024-03-07T09:56:38;31.97;;;22.50;;
9524;SDS011;15940;48.734;9.112;2024-03-07T09:59:08;27.13;;;21.13;;
9524;SDS011;15940;48.734;9.112;2024-03-07T10:01:39;31.27;;;22.83;;
9524;SDS011;15940;48.734;9.112;2024-03-07T10:04:12;37.33;;;24.43;;
9524;SDS011;15940;48.734;9.112;2024-03-07T10:06:42;35.63;;;23.43;;
9524;SDS011;15940;48.734;9.112;2024-03-07T10:09:10;33.00;;;22.90;;
9524;SDS011;15940;48.734;9.112;2024-03-07T10:11:39;34.00;;;23.83;;
9524;SDS011;15940;48.734;9.112;2024-03-07T10:14:07;33.70;;;22.30;;
9524;SDS011;15940;48.734;9.112;2024-03-07T10:16:35;30.73;;;21.87;;
9524;SDS011;15940;48.734;9.112;2024-03-07T10:19:03;29.57;;;20.80;;
9524;SDS011;15940;48.734;9.112;2024-03-07T10:21:31;35.30;;;21.90;;
9524;SDS011;15940;48.734;9.112;2024-03-07T10:24:04;31.83;;;21.07;;
9524;SDS011;15940;48.734;9.112;2024-03-07T10:26:33;30.57;;;21.03;;
9524;SDS011;15940;48.734;9.112;2024-03-07T10:29:04;29.13;;;19.90;;
9524;SDS011;15940;48.734;9.112;2024-03-07T10:31:32;32.67;;;19.87;;
9524;SDS011;15940;48.734;9.112;2024-03-07T10:34:02;29.17;;;19.83;;
9524;SDS011;15940;48.734;9.112;2024-03-07T10:36:30;26.10;;;19.07;;
9524;SDS011;15940;48.734;9.112;2024-03-07T10:38:57;26.07;;;17.47;;
9524;SDS011;15940;48.734;9.112;2024-03-07T10:41:29;25.13;;;17.17;;
9524;SDS011;15940;48.734;9.112;2024-03-07T10:44:04;23.90;;;17.40;;
9524;SDS011;15940;48.734;9.112;2024-03-07T10:46:34;27.73;;;17.33;;
9524;SDS011;15940;48.734;9.112;2024-03-07T10:49:02;24.13;;;16.63;;
9524;SDS011;15940;48.734;9.112;2024-03-07T10:51:33;24.23;;;17.50;;
9524;SDS011;15940;48.734;9.112;2024-03-07T10:54:12;26.70;;;18.00;;
9524;SDS011;15940;48.734;9.112;2024-03-07T10:56:55;24.03;;;17.53;;
9524;SDS011;15940;48.734;9.112;2024-03-07T10:59:35;25.00;;;16.97;;
9524;SDS011;15940;48.734;9.112;2024-03-07T11:02:06;27.83;;;17.77;;
9524;SDS011;15940;48.734;9.112;2024-03-07T11:04:49;24.63;;;17.97;;
9524;SDS011;15940;48.734;9.112;2024-03-07T11:07:17;28.63;;;19.00;;
9524;SDS011;15940;48.734;9.112;2024-03-07T11:09:45;30.00;;;19.00;;
9524;SDS011;15940;48.734;9.112;2024-03-07T11:12:17;25.67;;;18.30;;
9524;SDS011;15940;48.734;9.112;2024-03-07T11:14:47;26.90;;;17.97;;
9524;SDS011;15940;48.734;9.112;2024-03-07T11:17:16;25.97;;;18.07;;
9524;SDS011;15940;48.734;9.112;2024-03-07T11:19:45;27.93;;;18.07;;
9524;SDS011;15940;48.734;9.112;2024-03-07T11:22:27;29.87;;;18.27;;
9524;SDS011;15940;48.734;9.112;2024-03-07T11:25:00;25.60;;;17.80;;
9524;SDS011;15940;48.734;9.112;2024-03-07T11:27:31;26.20;;;18.17;;
9524;SDS011;15940;48.734;9.112;2024-03-07T11:30:05;28.17;;;18.13;;
9524;SDS011;15940;48.734;9.112;2024-03-07T11:32:34;27.57;;;18.00;;
9524;SDS011;15940;48.734;9.112;2024-03-07T11:35:03;24.33;;;16.40;;
9524;SDS011;15940;48.734;9.112;2024-03-07T11:37:39;27.33;;;17.33;;
9524;SDS011;15940;48.734;9.112;2024-03-07T11:40:09;25.03;;;16.73;;
9524;SDS011;15940;48.734;9.112;2024-03-07T11:42:43;27.20;;;17.63;;
9524;SDS011;15940;48.734;9.112;2024-03-07T11:45:14;28.00;;;18.40;;
9524;SDS011;15940;48.734;9.112;2024-03-07T11:47:50;29.03;;;18.67;;
9524;SDS011;15940;48.734;9.112;2024-03-07T11:50:22;28.43;;;17.77;;
9524;SDS011;15940;48.734;9.112;2024-03-07T11:52:50;26.50;;;18.33;;
9524;SDS011;15940;48.734;9.112;2024-03-07T11:55:19;28.03;;;18.17;;
9524;SDS011;15940;48.734;9.112;2024-03-07T11:57:47;28.40;;;18.70;;
9524;SDS011;15940;48.734;9.112;2024-03-07T12:00:17;28.73;;;19.37;;
9524;SDS011;15940;48.734;9.112;2024-03-07T12:02:46;32.10;;;19.27;;
9524;SDS011;15940;48.734;9.112;2024-03-07T12:05:13;26.17;;;18.40;;
9524;SDS011;15940;48.734;9.112;2024-03-07T12:07:42;26.73;;;18.87;;
9524;SDS011;15940;48.734;9.112;2024-03-07T12:10:09;28.27;;;18.90;;
9524;SDS011;15940;48.734;9.112;2024-03-07T12:12:36;27.57;;;18.10;;
9524;SDS011;15940;48.734;9.112;2024-03-07T12:15:04;26.43;;;19.07;;
9524;SDS011;15940;48.734;9.112;2024-03-07T12:17:41;27.40;;;18.30;;
9524;SDS011;15940;48.734;9.112;2024-03-07T12:20:09;31.10;;;20.33;;
9524;SDS011;15940;48.734;9.112;2024-03-07T12:22:54;29.37;;;19.67;;
9524;SDS011;15940;48.734;9.112;2024-03-07T12:25:22;27.23;;;18.07;;
9524;SDS011;15940;48.734;9.112;2024-03-07T12:27:59;31.90;;;19.80;;
9524;SDS011;15940;48.734;9.112;2024-03-07T12:30:30;28.30;;;18.83;;
9524;SDS011;15940;48.734;9.112;2024-03-07T12:33:00;26.53;;;19.03;;
9524;SDS011;15940;48.734;9.112;2024-03-07T12:35:30;29.17;;;19.30;;
9524;SDS011;15940;48.734;9.112;2024-03-07T12:37:57;33.73;;;22.60;;
9524;SDS011;15940;48.734;9.112;2024-03-07T12:40:25;31.77;;;21.33;;
9524;SDS011;15940;48.734;9.112;2024-03-07T12:42:54;29.10;;;20.37;;
9524;SDS011;15940;48.734;9.112;2024-03-07T12:45:21;33.30;;;20.93;;
9524;SDS011;15940;48.734;9.112;2024-03-07T12:47:48;34.37;;;22.17;;
9524;SDS011;15940;48.734;9.112;2024-03-07T12:50:20;32.57;;;22.47;;
9524;SDS011;15940;48.734;9.112;2024-03-07T12:52:48;30.33;;;21.97;;
9524;SDS011;15940;48.734;9.112;2024-03-07T12:55:15;31.90;;;22.33;;
9524;SDS011;15940;48.734;9.112;2024-03-07T12:57:46;30.17;;;21.40;;
9524;SDS011;15940;48.734;9.112;2024-03-07T13:00:15;31.00;;;21.77;;
9524;SDS011;15940;48.734;9.112;2024-03-07T13:02:46;32.60;;;22.63;;
9524;SDS011;15940;48.734;9.112;2024-03-07T13:05:13;35.10;;;22.47;;
9524;SDS011;15940;48.734;9.112;2024-03-07T13:07:46;30.93;;;21.20;;
9524;SDS011;15940;48.734;9.112;2024-03-07T13:10:13;30.60;;;20.83;;
9524;SDS011;15940;48.734;9.112;2024-03-07T13:12:43;29.97;;;21.73;;
9524;SDS011;15940;48.734;9.112;2024-03-07T13:15:11;29.80;;;20.43;;
9524;SDS011;15940;48.734;9.112;2024-03-07T13:17:38;30.13;;;21.33;;
9524;SDS011;15940;48.734;9.112;2024-03-07T13:20:08;33.53;;;21.70;;
9524;SDS011;15940;48.734;9.112;2024-03-07T13:22:40;33.47;;;21.27;;
9524;SDS011;15940;48.734;9.112;2024-03-07T13:25:14;33.97;;;22.77;;
9524;SDS011;15940;48.734;9.112;2024-03-07T13:27:50;30.73;;;21.40;;
9524;SDS011;15940;48.734;9.112;2024-03-07T13:30:23;31.03;;;21.83;;
9524;SDS011;15940;48.734;9.112;2024-03-07T13:32:52;29.57;;;21.43;;
9524;SDS011;15940;48.734;9.112;2024-03-07T13:35:20;28.87;;;20.83;;
9524;SDS011;15940;48.734;9.112;2024-03-07T13:37:48;32.40;;;22.43;;
9524;SDS011;15940;48.734;9.112;2024-03-07T13:40:17;30.67;;;20.77;;
9524;SDS011;15940;48.734;9.112;2024-03-07T13:42:53;28.63;;;21.67;;
9524;SDS011;15940;48.734;9.112;2024-03-07T13:45:21;28.80;;;21.10;;
9524;SDS011;15940;48.734;9.112;2024-03-07T13:47:51;33.87;;;22.73;;
9524;SDS011;15940;48.734;9.112;2024-03-07T13:50:19;31.00;;;21.53;;
9524;SDS011;15940;48.734;9.112;2024-03-07T13:52:49;30.00;;;21.73;;
9524;SDS011;15940;48.734;9.112;2024-03-07T13:55:53;34.10;;;21.00;;
9524;SDS011;15940;48.734;9.112;2024-03-07T13:58:48;32.53;;;22.10;;
9524;SDS011;15940;48.734;9.112;2024-03-07T14:01:37;29.53;;;21.50;;
9524;SDS011;15940;48.734;9.112;2024-03-07T14:04:27;34.20;;;22.27;;
9524;SDS011;15940;48.734;9.112;2024-03-07T14:07:30;32.73;;;21.57;;
9524;SDS011;15940;48.734;9.112;2024-03-07T14:10:30;30.63;;;21.17;;
9524;SDS011;15940;48.734;9.112;2024-03-07T14:13:39;27.20;;;19.87;;
9524;SDS011;15940;48.734;9.112;2024-03-07T14:16:52;27.80;;;20.17;;
9524;SDS011;15940;48.734;9.112;2024-03-07T14:20:26;24.80;;;19.97;;
9524;SDS011;15940;48.734;9.112;2024-03-07T14:23:39;30.80;;;20.43;;
9524;SDS011;15940;48.734;9.112;2024-03-07T14:26:42;28.43;;;20.60;;
9524;SDS011;15940;48.734;9.112;2024-03-07T14:29:44;30.97;;;23.47;;
9524;SDS011;15940;48.734;9.112;2024-03-07T14:32:18;29.23;;;20.93;;
9524;SDS011;15940;48.734;9.112;2024-03-07T14:34:47;28.63;;;20.37;;
9524;SDS011;15940;48.734;9.112;2024-03-07T14:37:24;29.33;;;20.87;;
9524;SDS011;15940;48.734;9.112;2024-03-07T14:40:02;30.03;;;20.77;;
9524;SDS011;15940;48.734;9.112;2024-03-07T14:42:37;29.97;;;21.43;;
9524;SDS011;15940;48.734;9.112;2024-03-07T14:45:11;31.20;;;20.93;;
9524;SDS011;15940;48.734;9.112;2024-03-07T14:47:41;31.00;;;20.10;;
9524;SDS011;15940;48.734;9.112;2024-03-07T14:50:11;26.63;;;20.20;;